Time;durP1;ratioP1;P1;durP2;ratioP2;P2;SDS_P1;SDS_P2;PMS_P1;PMS_P2;Temp;Humidity;BMP_temperature;BMP_pressure;BME280_temperature;BME280_humidity;BME280_pressure;Samples;Min_cycle;Max_cycle;Signal;HPM_P1;HPM_P2
2021/08/31 00:00:14;;;;;;;;;;;;;;;21.19;64.79;102536.50;7281986;19;153685;-50
2021/08/31 00:02:41;;;;;;;;;;;;;;;21.20;64.84;102533.44;7285321;19;153507;-50
2021/08/31 00:05:09;;;;;;;;;;;;;;;21.20;64.67;102541.88;7282244;19;152022;-50
2021/08/31 00:07:36;;;;;;;;;;;;;;;21.20;64.88;102535.41;7280430;19;153530;-50
2021/08/31 00:10:04;;;;;;;;;;;;;;;21.18;64.61;102535.66;7286446;19;152126;-50
2021/08/31 00:12:31;;;;;;;;;;;;;;;21.20;64.67;102532.59;7283410;19;152553;-51
2021/08/31 00:14:58;;;;;;;;;;;;;;;21.20;64.90;102533.44;7281352;19;153657;-51
2021/08/31 00:17:25;;;;;;;;;;;;;;;21.22;64.95;102535.94;7282013;19;154548;-50
2021/08/31 00:19:52;;;;;;;;;;;;;;;21.22;64.97;102538.75;7285852;19;152625;-49
2021/08/31 00:22:19;;;;;;;;;;;;;;;21.20;65.15;102541.03;7283692;19;154234;-50
2021/08/31 00:24:46;;;;;;;;;;;;;;;21.20;65.37;102543.84;7285165;19;151755;-50
2021/08/31 00:27:13;;;;;;;;;;;;;;;21.20;65.49;102538.22;7280624;19;151702;-50
2021/08/31 00:29:40;;;;;;;;;;;;;;;21.23;65.55;102543.28;7291450;19;154003;-50
2021/08/31 00:32:07;;;;;;;;;;;;;;;21.23;65.24;102538.50;7283930;19;153295;-50
2021/08/31 00:34:34;;;;;;;;;;;;;;;21.22;65.63;102539.63;7283583;19;153939;-50
2021/08/31 00:37:01;;;;;;;;;;;;;;;21.22;65.31;102538.75;7280406;19;151728;-50
2021/08/31 00:39:28;;;;;;;;;;;;;;;21.23;65.76;102540.47;7280884;19;152584;-50
2021/08/31 00:41:55;;;;;;;;;;;;;;;21.23;65.62;102540.47;7283016;19;153816;-50
2021/08/31 00:44:23;;;;;;;;;;;;;;;21.23;65.89;102541.31;7282459;19;152222;-50
2021/08/31 00:46:52;;;;;;;;;;;;;;;21.24;65.87;102544.97;7283484;19;152428;-51
2021/08/31 00:49:19;;;;;;;;;;;;;;;21.23;65.57;102546.09;7282067;19;153394;-50
2021/08/31 00:51:46;;;;;;;;;;;;;;;21.26;66.08;102553.97;7290140;19;152133;-51
2021/08/31 00:54:16;;;;;;;;;;;;;;;21.24;66.19;102548.63;7283034;19;154008;-50
2021/08/31 00:56:44;;;;;;;;;;;;;;;21.24;66.21;102548.63;7282991;19;151813;-51
2021/08/31 00:59:11;;;;;;;;;;;;;;;21.26;65.92;102543.56;7283286;19;152505;-50
2021/08/31 01:01:38;;;;;;;;;;;;;;;21.26;66.02;102549.19;7281787;19;153992;-50
2021/08/31 01:04:05;;;;;;;;;;;;;;;21.24;66.33;102548.63;7282012;19;151993;-50
2021/08/31 01:06:32;;;;;;;;;;;;;;;21.24;66.41;102537.38;7281637;19;153507;-50
2021/08/31 01:08:59;;;;;;;;;;;;;;;21.24;66.12;102545.81;7277278;19;153692;-51
2021/08/31 01:11:27;;;;;;;;;;;;;;;21.25;66.29;102541.06;7278728;19;151785;-51
2021/08/31 01:13:54;;;;;;;;;;;;;;;21.25;66.11;102538.22;7290316;19;153567;-50
2021/08/31 01:16:21;;;;;;;;;;;;;;;21.26;66.32;102540.75;7280354;19;152032;-51
2021/08/31 01:18:48;;;;;;;;;;;;;;;21.27;66.35;102536.81;7284316;19;153467;-51
2021/08/31 01:21:15;;;;;;;;;;;;;;;21.26;66.56;102545.53;7281177;19;153732;-51
2021/08/31 01:23:46;;;;;;;;;;;;;;;21.25;66.28;102544.72;7280775;19;151991;-50
2021/08/31 01:26:13;;;;;;;;;;;;;;;21.27;66.48;102547.22;7281613;19;152819;-50
2021/08/31 01:28:41;;;;;;;;;;;;;;;21.26;67.09;102545.53;7281550;19;153796;-50
2021/08/31 01:31:08;;;;;;;;;;;;;;;21.26;66.76;102548.34;7282993;19;151818;-50
2021/08/31 01:33:35;;;;;;;;;;;;;;;21.28;66.94;102540.50;7281689;19;152479;-51
2021/08/31 01:36:05;;;;;;;;;;;;;;;21.27;67.04;102545.25;7286696;19;153413;-51
2021/08/31 01:38:32;;;;;;;;;;;;;;;21.29;66.68;102539.38;7284397;19;152164;-51
2021/08/31 01:40:59;;;;;;;;;;;;;;;21.29;67.28;102540.22;7282311;19;152169;-51
2021/08/31 01:43:26;;;;;;;;;;;;;;;21.29;67.14;102540.22;7278328;19;151857;-51
2021/08/31 01:45:53;;;;;;;;;;;;;;;21.32;67.12;102540.78;7280747;19;152690;-52
2021/08/31 01:48:21;;;;;;;;;;;;;;;21.33;67.15;102546.13;7277529;19;154305;-51
2021/08/31 01:50:48;;;;;;;;;;;;;;;21.32;67.02;102537.97;7278869;19;151915;-51
2021/08/31 01:53:15;;;;;;;;;;;;;;;21.30;67.26;102546.69;7279850;19;153346;-51
2021/08/31 01:55:42;;;;;;;;;;;;;;;21.30;67.26;102543.88;7280992;19;152090;-51
2021/08/31 01:58:09;;;;;;;;;;;;;;;21.29;66.93;102545.00;7288727;19;151749;-50
2021/08/31 02:00:36;;;;;;;;;;;;;;;21.28;67.39;102546.97;7280005;19;153474;-51
2021/08/31 02:03:03;;;;;;;;;;;;;;;21.30;67.09;102543.88;7282127;19;152005;-50
2021/08/31 02:05:30;;;;;;;;;;;;;;;21.30;67.61;102546.69;7282144;19;152624;-51
2021/08/31 02:07:57;;;;;;;;;;;;;;;21.32;67.70;102550.06;7282385;19;154083;-50
2021/08/31 02:10:25;;;;;;;;;;;;;;;21.32;67.82;102549.22;7276906;19;152538;-50
2021/08/31 02:12:51;;;;;;;;;;;;;;;21.29;68.03;102557.09;7283772;19;153642;-50
2021/08/31 02:15:19;;;;;;;;;;;;;;;21.31;68.18;102556.78;7276584;19;152272;-50
2021/08/31 02:17:45;;;;;;;;;;;;;;;21.29;68.17;102553.44;7285868;19;151590;-51
2021/08/31 02:20:13;;;;;;;;;;;;;;;21.30;68.26;102560.75;7279565;19;152628;-50
2021/08/31 02:22:40;;;;;;;;;;;;;;;21.30;67.92;102555.13;7283070;19;152323;-51
2021/08/31 02:25:08;;;;;;;;;;;;;;;21.31;67.91;102559.59;7281689;19;152737;-50
2021/08/31 02:27:37;;;;;;;;;;;;;;;21.30;68.29;102564.38;7282214;19;154658;-50
2021/08/31 02:30:04;;;;;;;;;;;;;;;21.32;68.36;102566.94;7280071;19;153311;-50
2021/08/31 02:32:31;;;;;;;;;;;;;;;21.32;68.16;102561.31;7281101;19;153376;-50
2021/08/31 02:34:58;;;;;;;;;;;;;;;21.30;68.80;102570.00;7278750;19;153152;-50
2021/08/31 02:37:26;;;;;;;;;;;;;;;21.30;68.72;102570.00;7280784;19;152069;-50
2021/08/31 02:39:52;;;;;;;;;;;;;;;21.32;69.30;102566.94;7283169;19;152537;-50
2021/08/31 02:42:19;;;;;;;;;;;;;;;21.31;69.17;102562.41;7282123;19;151793;-51
2021/08/31 02:44:46;;;;;;;;;;;;;;;21.33;69.00;102568.63;7280210;19;153686;-51
2021/08/31 02:47:17;;;;;;;;;;;;;;;21.33;68.81;102562.16;7277164;19;154179;-50
2021/08/31 02:49:45;;;;;;;;;;;;;;;21.33;68.81;102568.63;7280201;19;151818;-51
2021/08/31 02:52:12;;;;;;;;;;;;;;;21.31;68.93;102568.03;7282000;19;152259;-50
2021/08/31 02:54:39;;;;;;;;;;;;;;;21.29;69.16;102562.72;7281183;19;154719;-51
2021/08/31 02:57:06;;;;;;;;;;;;;;;21.32;69.29;102566.09;7275757;19;151757;-51
2021/08/31 02:59:33;;;;;;;;;;;;;;;21.32;69.61;102566.09;7281533;19;153561;-50
2021/08/31 03:04:31;;;;;;;;;;;;;;;21.33;69.46;102564.97;7286843;19;152646;-51
2021/08/31 03:06:57;;;;;;;;;;;;;;;21.31;69.17;102565.22;7287523;19;153985;-51
2021/08/31 03:09:24;;;;;;;;;;;;;;;21.30;69.32;102561.56;7287195;19;152091;-51
2021/08/31 03:11:51;;;;;;;;;;;;;;;21.30;69.39;102567.19;7281334;19;152533;-51
2021/08/31 03:14:20;;;;;;;;;;;;;;;21.29;69.31;102562.72;7285827;19;153929;-50
2021/08/31 03:16:47;;;;;;;;;;;;;;;21.32;69.24;102566.09;7287732;19;151953;-50
2021/08/31 03:19:14;;;;;;;;;;;;;;;21.33;68.97;102565.81;7283099;19;151852;-50
2021/08/31 03:21:41;;;;;;;;;;;;;;;21.34;68.89;102561.88;7284917;19;154059;-50
2021/08/31 03:24:08;;;;;;;;;;;;;;;21.33;69.45;102567.78;7295432;19;151627;-50
2021/08/31 03:26:35;;;;;;;;;;;;;;;21.33;69.05;102568.63;7286866;19;154574;-50
2021/08/31 03:29:02;;;;;;;;;;;;;;;21.34;69.41;102569.47;7285609;19;151605;-51
2021/08/31 03:31:29;;;;;;;;;;;;;;;21.33;69.41;102564.97;7285622;19;152276;-50
2021/08/31 03:33:56;;;;;;;;;;;;;;;21.31;69.80;102565.22;7284285;19;154132;-50
2021/08/31 03:36:23;;;;;;;;;;;;;;;21.31;69.61;102562.41;7285838;19;152155;-50
2021/08/31 03:38:50;;;;;;;;;;;;;;;21.30;69.21;102561.56;7287404;19;153664;-51
2021/08/31 03:41:17;;;;;;;;;;;;;;;21.35;69.46;102562.75;7285008;19;153293;-51
2021/08/31 03:43:45;;;;;;;;;;;;;;;21.33;69.50;102574.25;7284673;19;151813;-50
2021/08/31 03:46:12;;;;;;;;;;;;;;;21.34;69.51;102581.56;7291981;19;153126;-50
2021/08/31 03:48:39;;;;;;;;;;;;;;;21.33;69.38;102574.25;7284088;19;151674;-50
2021/08/31 03:51:06;;;;;;;;;;;;;;;21.34;69.08;102580.72;7284193;19;153174;-50
2021/08/31 03:53:33;;;;;;;;;;;;;;;21.32;69.39;102572.56;7283830;19;152901;-50
2021/08/31 03:56:00;;;;;;;;;;;;;;;21.33;69.43;102573.41;7284174;19;151836;-51
2021/08/31 03:58:27;;;;;;;;;;;;;;;21.32;69.64;102572.56;7284706;19;152133;-51
2021/08/31 04:00:54;;;;;;;;;;;;;;;21.31;69.36;102576.47;7286166;19;153328;-51
2021/08/31 04:03:21;;;;;;;;;;;;;;;21.33;69.49;102571.44;7286710;19;151771;-51
2021/08/31 04:05:48;;;;;;;;;;;;;;;21.33;69.09;102582.69;7287741;19;153501;-50
2021/08/31 04:08:15;;;;;;;;;;;;;;;21.33;69.18;102579.88;7292088;19;152440;-50
2021/08/31 04:10:42;;;;;;;;;;;;;;;21.31;69.58;102573.66;7282301;19;152661;-51
2021/08/31 04:13:11;;;;;;;;;;;;;;;21.32;69.47;102572.56;7280606;19;153885;-50
2021/08/31 04:15:38;;;;;;;;;;;;;;;21.33;69.47;102579.03;7285293;19;151738;-51
2021/08/31 04:18:05;;;;;;;;;;;;;;;21.32;69.23;102577.31;7282682;19;153479;-50
2021/08/31 04:20:32;;;;;;;;;;;;;;;21.33;69.53;102577.06;7285222;19;153638;-51
2021/08/31 04:22:59;;;;;;;;;;;;;;;21.35;69.81;102585.22;7285804;19;151965;-50
2021/08/31 04:25:26;;;;;;;;;;;;;;;21.34;69.35;102587.19;7284903;19;153088;-51
2021/08/31 04:27:53;;;;;;;;;;;;;;;21.31;69.75;102582.09;7291221;19;153814;-51
2021/08/31 04:30:20;;;;;;;;;;;;;;;21.33;69.65;102579.88;7282949;19;152586;-50
2021/08/31 04:32:47;;;;;;;;;;;;;;;21.33;69.61;102577.06;7284429;19;153297;-50
2021/08/31 04:35:14;;;;;;;;;;;;;;;21.37;69.81;102574.53;7283770;19;152416;-51
2021/08/31 04:37:41;;;;;;;;;;;;;;;21.34;69.26;102575.94;7282717;19;152392;-51
2021/08/31 04:40:08;;;;;;;;;;;;;;;21.33;69.59;102588.31;7285018;19;153463;-51
2021/08/31 04:42:35;;;;;;;;;;;;;;;21.34;69.34;102597.59;7283983;19;151837;-50
2021/08/31 04:45:02;;;;;;;;;;;;;;;21.30;69.30;102586.88;7284337;19;152335;-51
2021/08/31 04:47:29;;;;;;;;;;;;;;;21.30;69.72;102600.13;7284700;19;154398;-50
2021/08/31 04:49:56;;;;;;;;;;;;;;;21.31;69.44;102596.16;7294180;19;152965;-51
2021/08/31 04:52:23;;;;;;;;;;;;;;;21.30;69.48;102583.25;7282712;19;153250;-51
2021/08/31 04:54:50;;;;;;;;;;;;;;;21.30;69.30;102586.88;7283879;19;152111;-50
2021/08/31 04:57:19;;;;;;;;;;;;;;;21.31;69.36;102587.72;7284830;19;152755;-50
2021/08/31 04:59:45;;;;;;;;;;;;;;;21.32;69.07;102594.19;7282310;19;152651;-51
2021/08/31 05:02:12;;;;;;;;;;;;;;;21.29;69.33;102595.59;7284942;19;151781;-50
2021/08/31 05:04:39;;;;;;;;;;;;;;;21.31;69.14;102590.53;7284526;19;151783;-50
2021/08/31 05:07:10;;;;;;;;;;;;;;;21.31;69.29;102596.16;7284421;19;155022;-50
2021/08/31 05:09:40;;;;;;;;;;;;;;;21.30;69.56;102588.88;7282473;19;152017;-50
2021/08/31 05:12:07;;;;;;;;;;;;;;;21.30;69.20;102594.50;7288973;19;153130;-51
2021/08/31 05:14:35;;;;;;;;;;;;;;;21.30;69.23;102608.53;7277676;19;152429;-51
2021/08/31 05:17:03;;;;;;;;;;;;;;;21.32;69.27;102600.66;7286255;19;152808;-51
2021/08/31 05:19:31;;;;;;;;;;;;;;;21.31;69.32;102604.59;7280524;19;153412;-51
2021/08/31 05:21:59;;;;;;;;;;;;;;;21.30;69.27;102609.38;7284131;19;151844;-50
2021/08/31 05:24:28;;;;;;;;;;;;;;;21.30;68.85;102605.75;7283197;19;152645;-51
2021/08/31 05:26:55;;;;;;;;;;;;;;;21.27;69.31;102601.50;7278572;19;153904;-50
2021/08/31 05:29:22;;;;;;;;;;;;;;;21.27;69.39;102612.72;7283316;19;151879;-51
2021/08/31 05:31:49;;;;;;;;;;;;;;;21.27;69.15;102612.72;7282326;19;153253;-50
2021/08/31 05:34:16;;;;;;;;;;;;;;;21.26;69.33;102611.03;7290140;19;153840;-51
2021/08/31 05:36:43;;;;;;;;;;;;;;;21.27;69.32;102620.31;7283304;19;152641;-51
2021/08/31 05:39:10;;;;;;;;;;;;;;;21.24;69.45;102621.72;7278835;19;153269;-50
2021/08/31 05:41:37;;;;;;;;;;;;;;;21.24;69.44;102621.72;7284298;19;152163;-50
2021/08/31 05:44:04;;;;;;;;;;;;;;;21.26;69.51;102633.53;7281638;19;152605;-50
2021/08/31 05:46:32;;;;;;;;;;;;;;;21.26;69.33;102636.34;7281667;19;152445;-50
2021/08/31 05:49:00;;;;;;;;;;;;;;;21.25;69.67;102633.81;7283782;19;151639;-51
2021/08/31 05:51:27;;;;;;;;;;;;;;;21.26;69.38;102641.09;7283297;19;152597;-49
2021/08/31 05:53:54;;;;;;;;;;;;;;;21.24;69.82;102638.59;7278560;19;153280;-50
2021/08/31 05:56:21;;;;;;;;;;;;;;;21.24;69.50;102637.75;7289570;19;152075;-50
2021/08/31 05:58:49;;;;;;;;;;;;;;;21.24;69.82;102632.97;7279322;19;154152;-51
2021/08/31 06:01:16;;;;;;;;;;;;;;;21.24;70.00;102632.13;7281563;19;152008;-51
2021/08/31 06:03:43;;;;;;;;;;;;;;;21.27;69.63;102638.03;7282288;19;152785;-51
2021/08/31 06:06:13;;;;;;;;;;;;;;;21.31;70.16;102646.75;7282478;19;153980;-50
2021/08/31 06:08:40;;;;;;;;;;;;;;;21.34;70.31;102634.16;7282688;19;152089;-50
2021/08/31 06:11:07;;;;;;;;;;;;;;;21.38;70.22;102638.09;7281117;19;152347;-51
2021/08/31 06:13:34;;;;;;;;;;;;;;;21.43;70.48;102638.13;7278819;19;154126;-50
2021/08/31 06:16:01;;;;;;;;;;;;;;;21.47;70.71;102639.28;7277457;19;151740;-50
2021/08/31 06:18:28;;;;;;;;;;;;;;;21.50;71.77;102639.56;7286749;19;153382;-50
2021/08/31 06:20:55;;;;;;;;;;;;;;;21.55;72.48;102641.56;7282324;19;153509;-51
2021/08/31 06:23:22;;;;;;;;;;;;;;;21.61;72.67;102646.09;7281063;19;152003;-50
2021/08/31 06:25:49;;;;;;;;;;;;;;;21.67;73.05;102644.97;7281499;19;154879;-50
2021/08/31 06:28:16;;;;;;;;;;;;;;;21.72;73.25;102645.00;7280322;19;154481;-51
2021/08/31 06:30:43;;;;;;;;;;;;;;;21.78;73.41;102648.69;7281052;19;152652;-51
2021/08/31 06:33:10;;;;;;;;;;;;;;;21.85;73.13;102647.28;7280963;19;154179;-50
2021/08/31 06:35:37;;;;;;;;;;;;;;;21.91;72.64;102656.59;7282244;19;151555;-50
2021/08/31 06:38:04;;;;;;;;;;;;;;;21.97;72.73;102652.72;7292409;19;153901;-50
2021/08/31 06:40:31;;;;;;;;;;;;;;;22.04;72.43;102650.47;7287976;19;152010;-51
2021/08/31 06:42:58;;;;;;;;;;;;;;;22.09;72.00;102642.91;7288793;19;153325;-50
2021/08/31 06:45:25;;;;;;;;;;;;;;;22.15;71.75;102650.25;7287314;19;153222;-50
2021/08/31 06:47:52;;;;;;;;;;;;;;;22.23;71.25;102654.47;7289422;19;151682;-50
2021/08/31 06:50:19;;;;;;;;;;;;;;;22.28;71.02;102650.81;7286663;19;152719;-50
2021/08/31 06:52:46;;;;;;;;;;;;;;;22.34;70.64;102652.53;7287153;19;153152;-50
2021/08/31 06:55:14;;;;;;;;;;;;;;;22.39;70.47;102656.22;7286133;19;151656;-50
2021/08/31 06:57:41;;;;;;;;;;;;;;;22.44;70.28;102661.00;7287309;19;153201;-50
2021/08/31 07:00:08;;;;;;;;;;;;;;;22.47;69.57;102664.09;7293328;19;153442;-50
2021/08/31 07:02:35;;;;;;;;;;;;;;;22.52;69.29;102663.25;7285491;19;153294;-50
2021/08/31 07:05:03;;;;;;;;;;;;;;;22.57;69.11;102666.09;7284918;19;154171;-50
2021/08/31 07:07:30;;;;;;;;;;;;;;;22.60;68.98;102669.19;7285996;19;152065;-50
2021/08/31 07:09:57;;;;;;;;;;;;;;;22.63;68.44;102671.44;7287583;19;153755;-50
2021/08/31 07:12:24;;;;;;;;;;;;;;;22.68;68.39;102673.41;7283720;19;152277;-51
2021/08/31 07:14:52;;;;;;;;;;;;;;;22.71;67.71;102680.50;7281590;19;152129;-50
2021/08/31 07:17:19;;;;;;;;;;;;;;;22.73;68.20;102678.22;7283177;19;153374;-50
2021/08/31 07:19:47;;;;;;;;;;;;;;;22.76;68.16;102677.69;7281161;19;154077;-50
2021/08/31 07:22:16;;;;;;;;;;;;;;;22.79;67.80;102672.31;7295382;19;153294;-51
2021/08/31 07:24:43;;;;;;;;;;;;;;;22.80;68.09;102670.34;7285210;19;153290;-50
2021/08/31 07:27:11;;;;;;;;;;;;;;;22.83;67.99;102672.59;7285238;19;152335;-50
2021/08/31 07:29:38;;;;;;;;;;;;;;;22.85;67.62;102667.53;7286173;19;152645;-50
2021/08/31 07:32:05;;;;;;;;;;;;;;;;;;7286644;19;152692;-50
2021/08/31 07:34:33;;;;;;;;;;;;;;;22.88;67.66;102662.19;7284573;19;159463;-50
2021/08/31 07:37:00;;;;;;;;;;;;;;;22.89;67.07;102669.50;7287392;19;153572;-50
2021/08/31 07:39:27;;;;;;;;;;;;;;;22.90;67.13;102671.19;7285473;19;153979;-50
2021/08/31 07:41:54;;;;;;;;;;;;;;;22.92;67.10;102673.72;7284620;19;152116;-50
2021/08/31 07:44:21;;;;;;;;;;;;;;;22.94;66.58;102674.31;7292949;19;153365;-51
2021/08/31 07:46:47;;;;;;;;;;;;;;;22.95;66.92;102665.53;7284710;19;151936;-50
2021/08/31 07:49:14;;;;;;;;;;;;;;;22.96;66.61;102678.50;7284267;19;153309;-51
2021/08/31 07:51:42;;;;;;;;;;;;;;;22.97;66.67;102676.53;7283792;19;152845;-50
2021/08/31 07:54:09;;;;;;;;;;;;;;;22.97;66.23;102679.38;7287393;19;152072;-50
2021/08/31 07:56:36;;;;;;;;;;;;;;;22.98;66.51;102678.25;7286772;19;151598;-50
2021/08/31 07:59:04;;;;;;;;;;;;;;;22.98;66.66;102684.72;7282729;19;153679;-50
2021/08/31 08:01:32;;;;;;;;;;;;;;;22.99;66.65;102685.53;7286103;19;151992;-50
2021/08/31 08:03:59;;;;;;;;;;;;;;;22.98;66.23;102687.53;7283836;19;152629;-50
2021/08/31 08:06:26;;;;;;;;;;;;;;;23.00;66.70;102685.28;7289533;19;153780;-50
2021/08/31 08:08:55;;;;;;;;;;;;;;;23.00;66.64;102693.72;7281852;19;152294;-50
2021/08/31 08:11:22;;;;;;;;;;;;;;;22.99;66.31;102682.72;7284154;19;152467;-50
2021/08/31 08:13:49;;;;;;;;;;;;;;;22.98;66.20;102690.38;7283436;19;152022;-50
2021/08/31 08:16:18;;;;;;;;;;;;;;;22.99;66.18;102692.03;7278880;19;152784;-51
2021/08/31 08:18:45;;;;;;;;;;;;;;;22.97;65.87;102688.66;7284368;19;154080;-50
2021/08/31 08:21:12;;;;;;;;;;;;;;;22.97;66.13;102693.47;7285452;19;152246;-51
2021/08/31 08:23:40;;;;;;;;;;;;;;;22.98;66.09;102693.19;7284894;19;153629;-50
2021/08/31 08:26:08;;;;;;;;;;;;;;;22.97;66.21;102697.13;7282906;19;153853;-50
2021/08/31 08:28:36;;;;;;;;;;;;;;;23.00;66.19;102696.53;7291431;19;151563;-58
2021/08/31 08:31:04;;;;;;;;;;;;;;;22.98;66.29;102703.63;7281722;19;153927;-50
2021/08/31 08:33:32;;;;;;;;;;;;;;;22.98;66.30;102698.81;7285897;19;151994;-51
2021/08/31 08:36:00;;;;;;;;;;;;;;;22.96;66.24;102706.69;7283023;19;152137;-50
2021/08/31 08:38:28;;;;;;;;;;;;;;;22.97;65.90;102707.56;7282673;19;152930;-51
2021/08/31 08:40:56;;;;;;;;;;;;;;;22.96;65.71;102700.22;7283276;19;151997;-50
2021/08/31 08:43:23;;;;;;;;;;;;;;;22.96;65.63;102701.06;7283883;19;153302;-50
2021/08/31 08:45:50;;;;;;;;;;;;;;;22.96;65.62;102705.84;7282734;19;153483;-51
2021/08/31 08:48:20;;;;;;;;;;;;;;;22.97;65.85;102710.38;7294196;19;152105;-51
2021/08/31 08:50:47;;;;;;;;;;;;;;;22.94;65.85;102708.13;7282860;19;153294;-51
2021/08/31 08:53:15;;;;;;;;;;;;;;;22.91;65.39;102701.06;7280248;19;151986;-51
2021/08/31 08:55:42;;;;;;;;;;;;;;;22.90;65.50;102706.97;7279029;19;152206;-50
2021/08/31 08:58:09;;;;;;;;;;;;;;;22.91;65.53;102709.53;7286053;19;153598;-51
2021/08/31 09:00:38;;;;;;;;;;;;;;;22.91;65.69;102715.16;7279249;19;152162;-50
2021/08/31 09:03:16;;;;;;;;;;;;;;;22.88;65.73;102720.53;7285516;19;152030;-51
2021/08/31 09:05:43;;;;;;;;;;;;;;;22.90;65.10;102709.78;7282301;19;153080;-50
2021/08/31 09:08:10;;;;;;;;;;;;;;;22.87;65.44;102710.38;7285040;19;152358;-51
2021/08/31 09:10:41;;;;;;;;;;;;;;;22.86;65.42;102711.47;7288263;19;152663;-50
2021/08/31 09:13:10;;;;;;;;;;;;;;;22.83;65.43;102712.91;7282999;19;156922;-50
2021/08/31 09:15:38;;;;;;;;;;;;;;;22.80;65.65;102721.09;7284522;19;152919;-51
2021/08/31 09:18:10;;;;;;;;;;;;;;;22.79;65.40;102727.84;7279254;19;154118;-50
2021/08/31 09:20:40;;;;;;;;;;;;;;;22.75;65.98;102730.38;7279077;19;151826;-50
2021/08/31 09:23:08;;;;;;;;;;;;;;;22.74;65.60;102731.50;7281822;19;151963;-51
2021/08/31 09:25:38;;;;;;;;;;;;;;;22.71;66.05;102726.44;7280360;19;153826;-50
2021/08/31 09:28:08;;;;;;;;;;;;;;;22.71;65.68;102728.41;7283789;19;151701;-51
2021/08/31 09:30:35;;;;;;;;;;;;;;;22.69;66.08;102734.28;7282526;19;153124;-51
2021/08/31 09:33:06;;;;;;;;;;;;;;;22.69;65.73;102739.06;7291411;19;153780;-51
2021/08/31 09:35:35;;;;;;;;;;;;;;;22.67;65.85;102735.69;7283838;19;153571;-50
2021/08/31 09:38:05;;;;;;;;;;;;;;;22.65;66.23;102741.59;7283409;19;152591;-50
2021/08/31 09:40:37;;;;;;;;;;;;;;;22.66;65.23;102740.47;7282084;19;152294;-51
2021/08/31 09:43:05;;;;;;;;;;;;;;;22.68;64.77;102732.56;7281917;19;153691;-51
2021/08/31 09:45:33;;;;;;;;;;;;;;;22.68;64.28;102734.53;7280103;19;153277;-51
2021/08/31 09:48:02;;;;;;;;;;;;;;;22.66;64.16;102732.03;7281833;19;152432;-51
2021/08/31 09:50:32;;;;;;;;;;;;;;;22.63;64.53;102733.41;7281642;19;153163;-51
2021/08/31 09:53:04;;;;;;;;;;;;;;;22.58;64.40;102729.75;7279703;19;153308;-50
2021/08/31 09:55:31;;;;;;;;;;;;;;;22.58;64.03;102735.38;7288325;19;151665;-50
2021/08/31 09:58:01;;;;;;;;;;;;;;;22.51;64.57;102738.47;7283835;19;152396;-50
2021/08/31 10:00:28;;;;;;;;;;;;;;;22.52;64.37;102736.50;7280204;19;152223;-50
2021/08/31 10:02:55;;;;;;;;;;;;;;;22.47;64.33;102731.72;7281946;19;153269;-51
2021/08/31 10:05:24;;;;;;;;;;;;;;;22.47;64.44;102742.97;7281830;19;154059;-51
2021/08/31 10:07:52;;;;;;;;;;;;;;;22.43;64.49;102741.84;7282800;19;151495;-51
2021/08/31 10:10:19;;;;;;;;;;;;;;;22.41;64.32;102737.59;7282409;19;153423;-51
2021/08/31 10:12:46;;;;;;;;;;;;;;;22.40;64.76;102739.56;7282683;19;152198;-51
2021/08/31 10:15:14;;;;;;;;;;;;;;;22.40;64.79;102744.34;7278705;19;152718;-51
2021/08/31 10:17:44;;;;;;;;;;;;;;;22.38;64.61;102740.97;7285313;19;154368;-51
2021/08/31 10:20:12;;;;;;;;;;;;;;;22.36;64.64;102734.75;7275575;19;152939;-50
2021/08/31 10:22:38;;;;;;;;;;;;;;;22.35;64.85;102747.19;7280798;19;152785;-51
2021/08/31 10:25:06;;;;;;;;;;;;;;;22.34;64.40;102743.50;7278599;19;154027;-51
2021/08/31 10:27:40;;;;;;;;;;;;;;;22.33;64.62;102744.63;7282873;19;151675;-50
2021/08/31 10:30:10;;;;;;;;;;;;;;;22.34;64.61;102748.28;7281516;19;153094;-51
2021/08/31 10:32:37;;;;;;;;;;;;;;;22.31;64.65;102741.22;7282329;19;153308;-51
2021/08/31 10:35:04;;;;;;;;;;;;;;;22.29;64.88;102740.69;7280719;19;152029;-51
2021/08/31 10:37:47;;;;;;;;;;;;;;;22.29;64.68;102740.69;7280456;19;153497;-51
2021/08/31 10:40:16;;;;;;;;;;;;;;;22.29;64.71;102739.81;7286471;19;151810;-51
2021/08/31 10:42:44;;;;;;;;;;;;;;;22.28;64.78;102746.56;7281219;19;153608;-50
2021/08/31 10:45:14;;;;;;;;;;;;;;;22.27;64.76;102745.72;7277731;19;153375;-50
2021/08/31 10:47:41;;;;;;;;;;;;;;;22.26;64.66;102746.03;7282534;19;151777;-51
2021/08/31 10:50:15;;;;;;;;;;;;;;;22.26;64.51;102746.03;7280990;19;152419;-50
2021/08/31 10:52:44;;;;;;;;;;;;;;;22.23;64.99;102753.03;7280303;19;153909;-51
2021/08/31 10:55:14;;;;;;;;;;;;;;;22.24;65.09;102749.09;7280585;19;152473;-51
2021/08/31 10:57:42;;;;;;;;;;;;;;;22.27;64.67;102742.91;7280546;19;153205;-50
2021/08/31 11:00:14;;;;;;;;;;;;;;;22.17;64.06;102740.91;7285498;19;153804;-50
2021/08/31 11:02:44;;;;;;;;;;;;;;;22.14;63.92;102746.25;7283490;19;154624;-51
2021/08/31 11:05:14;;;;;;;;;;;;;;;22.12;63.55;102751.31;7278954;19;154312;-50
2021/08/31 11:07:41;;;;;;;;;;;;;;;22.13;62.72;102747.34;7281213;19;151897;-50
2021/08/31 11:10:07;;;;;;;;;;;;;;;22.08;62.77;102751.00;7279480;19;151825;-51
2021/08/31 11:12:34;;;;;;;;;;;;;;;22.07;63.22;102748.47;7277213;19;153872;-51
2021/08/31 11:15:01;;;;;;;;;;;;;;;22.02;62.86;102746.50;7277440;19;151995;-51
2021/08/31 11:17:30;;;;;;;;;;;;;;;21.98;61.54;102750.13;7281146;19;152732;-51
2021/08/31 11:19:59;;;;;;;;;;;;;;;21.97;61.54;102748.44;7273477;19;155276;-51
2021/08/31 11:22:26;;;;;;;;;;;;;;;21.99;60.74;102743.34;7288844;19;151881;-51
2021/08/31 11:24:53;;;;;;;;;;;;;;;21.97;61.14;102751.25;7282976;19;153298;-51
2021/08/31 11:27:20;;;;;;;;;;;;;;;21.92;61.41;102751.19;7285183;19;152332;-51
2021/08/31 11:29:55;;;;;;;;;;;;;;;21.93;61.10;102753.75;7278539;19;151858;-51
2021/08/31 11:32:21;;;;;;;;;;;;;;;21.88;61.20;102750.03;7274916;19;153483;-50
2021/08/31 11:34:51;;;;;;;;;;;;;;;21.88;61.22;102759.34;7277337;19;152339;-51
2021/08/31 11:37:18;;;;;;;;;;;;;;;21.86;60.98;102755.94;7278656;19;154623;-50
2021/08/31 11:39:56;;;;;;;;;;;;;;;21.82;61.30;102759.56;7277891;19;153053;-51
2021/08/31 11:42:22;;;;;;;;;;;;;;;21.80;61.01;102759.88;7283277;19;151952;-50
2021/08/31 11:44:52;;;;;;;;;;;;;;;21.81;61.37;102760.69;7289491;19;152705;-51
2021/08/31 11:47:19;;;;;;;;;;;;;;;21.79;61.29;102777.00;7280397;19;152618;-51
2021/08/31 11:49:46;;;;;;;;;;;;;;;21.78;60.98;102764.06;7283635;19;152786;-51
2021/08/31 11:52:16;;;;;;;;;;;;;;;21.78;61.48;102775.31;7284836;19;153838;-52
2021/08/31 11:54:44;;;;;;;;;;;;;;;21.76;61.42;102772.75;7285460;19;151688;-51
2021/08/31 11:57:15;;;;;;;;;;;;;;;21.76;61.68;102767.13;7285028;19;152653;-51
2021/08/31 11:59:44;;;;;;;;;;;;;;;21.77;61.19;102771.63;7285619;19;153856;-51
2021/08/31 12:02:16;;;;;;;;;;;;;;;21.76;60.90;102769.13;7286292;19;151748;-51
2021/08/31 12:04:45;;;;;;;;;;;;;;;21.73;61.42;102767.69;7286315;19;152790;-50
2021/08/31 12:07:16;;;;;;;;;;;;;;;21.71;61.04;102764.31;7292091;19;153581;-50
2021/08/31 12:09:45;;;;;;;;;;;;;;;21.78;61.36;102762.09;7286125;19;153263;-50
2021/08/31 12:12:13;;;;;;;;;;;;;;;21.70;62.28;102766.28;7283675;19;153512;-51
2021/08/31 12:14:40;;;;;;;;;;;;;;;21.70;62.32;102768.22;7286748;19;151873;-50
2021/08/31 12:17:08;;;;;;;;;;;;;;;21.72;62.57;102769.63;7283096;19;151837;-51
2021/08/31 12:19:35;;;;;;;;;;;;;;;21.73;62.21;102760.09;7280413;19;152632;-51
2021/08/31 12:22:04;;;;;;;;;;;;;;;21.72;62.29;102752.75;7277383;19;152029;-50
2021/08/31 12:24:31;;;;;;;;;;;;;;;21.74;62.25;102766.56;7285994;19;152704;-51
2021/08/31 12:27:07;;;;;;;;;;;;;;;21.75;62.38;102751.38;7284996;19;155587;-50
2021/08/31 12:29:37;;;;;;;;;;;;;;;21.76;62.61;102758.69;7292367;19;152081;-51
2021/08/31 12:32:05;;;;;;;;;;;;;;;21.78;62.89;102749.97;7284394;19;153807;-50